createdAt,value
2022-08-29T00:01:13.003Z,99008.69
2022-08-29T00:03:41.179Z,99009.28
2022-08-29T00:06:10.523Z,99010.00
2022-08-29T00:08:37.688Z,99005.94
2022-08-29T00:11:06.714Z,99013.94
2022-08-29T00:13:34.244Z,99012.06
2022-08-29T00:16:01.508Z,99007.41
2022-08-29T00:18:29.007Z,99008.69
2022-08-29T00:20:56.225Z,99008.88
2022-08-29T00:23:23.402Z,99009.00
2022-08-29T00:25:50.890Z,99020.25
2022-08-29T00:28:18.095Z,99017.09
2022-08-29T00:30:45.336Z,99013.53
2022-08-29T00:33:12.766Z,99009.91
2022-08-29T00:35:40.656Z,99003.97
2022-08-29T00:38:08.544Z,99012.88
2022-08-29T00:40:41.304Z,99016.56
2022-08-29T00:43:08.900Z,99019.34
2022-08-29T00:45:37.070Z,99024.09
2022-08-29T00:48:08.280Z,99013.53
2022-08-29T00:50:37.032Z,99024.59
2022-08-29T00:53:05.234Z,99026.03
2022-08-29T00:55:33.409Z,99026.37
2022-08-29T00:58:02.948Z,99031.75
2022-08-29T01:00:30.571Z,99032.84
2022-08-29T01:02:57.746Z,99029.16
2022-08-29T01:05:24.939Z,99026.91
2022-08-29T01:07:52.517Z,99032.44
2022-08-29T01:10:38.824Z,99027.84
2022-08-29T01:13:06.297Z,99024.56
2022-08-29T01:15:33.740Z,99023.78
2022-08-29T01:18:01.172Z,99023.78
2022-08-29T01:20:34.377Z,99027.06
2022-08-29T01:23:31.024Z,99030.91
2022-08-29T01:25:58.487Z,99042.19
2022-08-29T01:28:29.877Z,99032.34
2022-08-29T01:30:56.991Z,99044.19
2022-08-29T01:33:24.440Z,99041.28
2022-08-29T01:35:51.702Z,99039.56
2022-08-29T01:38:27.712Z,99046.69
2022-08-29T01:40:56.176Z,99038.66
2022-08-29T01:43:23.370Z,99038.66
2022-08-29T01:45:50.756Z,99035.03
2022-08-29T01:48:18.549Z,99034.19
2022-08-29T01:50:46.465Z,99043.09
2022-08-29T01:53:13.826Z,99036.75
2022-08-29T01:55:41.657Z,99041.63
2022-08-29T01:58:09.120Z,99042.50
2022-08-29T02:00:36.803Z,99043.41
2022-08-29T02:03:04.288Z,99040.84
2022-08-29T02:05:31.513Z,99042.06
2022-08-29T02:07:58.708Z,99043.19
2022-08-29T02:10:26.242Z,99043.34
2022-08-29T02:12:53.848Z,99040.94
2022-08-29T02:15:21.375Z,99028.50
2022-08-29T02:17:48.799Z,99030.25
2022-08-29T02:20:16.291Z,99027.31
2022-08-29T02:22:43.495Z,99025.31
2022-08-29T02:25:30.010Z,99025.69
2022-08-29T02:27:59.185Z,99021.50
2022-08-29T02:30:26.658Z,99019.13
2022-08-29T02:32:54.143Z,99022.72
2022-08-29T02:35:22.657Z,99022.28
2022-08-29T02:37:52.257Z,99013.66
2022-08-29T02:40:19.628Z,99008.09
2022-08-29T02:42:53.784Z,99013.19
2022-08-29T02:45:21.829Z,99009.31
2022-08-29T02:47:49.010Z,99011.69
2022-08-29T02:50:16.511Z,99019.72
2022-08-29T02:52:43.844Z,99018.53
2022-08-29T02:55:12.729Z,99021.12
2022-08-29T02:57:40.202Z,99019.69
2022-08-29T03:00:09.118Z,99019.81
2022-08-29T03:02:36.323Z,99023.47
2022-08-29T03:05:03.936Z,99026.53
2022-08-29T03:07:31.166Z,99021.59
2022-08-29T03:09:58.332Z,99026.22
2022-08-29T03:12:25.828Z,99024.84
2022-08-29T03:14:55.488Z,99028.56
2022-08-29T03:17:22.650Z,99031.31
2022-08-29T03:19:50.148Z,99023.09
2022-08-29T03:22:19.057Z,99036.81
2022-08-29T03:24:46.296Z,99037.19
2022-08-29T03:27:13.838Z,99034.94
2022-08-29T03:29:41.018Z,99041.75
2022-08-29T03:32:08.224Z,99048.06
2022-08-29T03:34:35.660Z,99045.44
2022-08-29T03:37:02.843Z,99044.12
2022-08-29T03:39:30.047Z,99056.44
2022-08-29T03:41:57.505Z,99062.59
2022-08-29T03:44:24.694Z,99056.53
2022-08-29T03:46:52.059Z,99056.22
2022-08-29T03:49:19.542Z,99060.31
2022-08-29T03:51:46.695Z,99061.84
2022-08-29T03:54:13.870Z,99068.53
2022-08-29T03:56:41.327Z,99075.12
2022-08-29T03:59:08.856Z,99082.91
2022-08-29T04:01:36.163Z,99088.09
2022-08-29T04:04:03.917Z,99086.75
2022-08-29T04:06:33.751Z,99091.97
2022-08-29T04:09:00.926Z,99093.34
2022-08-29T04:11:28.939Z,99089.06
2022-08-29T04:13:57.084Z,99097.88
2022-08-29T04:16:25.454Z,99094.53
2022-08-29T04:18:58.134Z,99090.25
2022-08-29T04:21:26.013Z,99092.19
2022-08-29T04:26:41.068Z,99086.84
2022-08-29T04:29:09.312Z,99089.81
2022-08-29T04:31:36.901Z,99096.34
2022-08-29T04:34:06.461Z,99103.50
2022-08-29T04:36:34.291Z,99094.44
2022-08-29T04:39:01.511Z,99108.94
2022-08-29T04:41:28.936Z,99106.91
2022-08-29T04:43:56.092Z,99099.13
2022-08-29T04:46:23.770Z,99101.50
2022-08-29T04:48:55.020Z,99098.06
2022-08-29T04:51:22.306Z,99100.97
2022-08-29T04:53:53.261Z,99103.84
2022-08-29T04:56:21.468Z,99107.50
2022-08-29T04:58:50.508Z,99108.28
2022-08-29T05:01:19.137Z,99107.63
2022-08-29T05:03:46.643Z,99109.25
2022-08-29T05:06:14.459Z,99096.59
2022-08-29T05:08:42.598Z,99099.59
2022-08-29T05:11:11.489Z,99106.81
2022-08-29T05:13:39.037Z,99111.03
2022-08-29T05:16:11.146Z,99102.25
2022-08-29T05:18:39.197Z,99114.00
2022-08-29T05:21:06.583Z,99105.31
2022-08-29T05:23:34.854Z,99116.91
2022-08-29T05:26:02.838Z,99109.91
2022-08-29T05:28:30.672Z,99106.91
2022-08-29T05:30:58.174Z,99109.47
2022-08-29T05:33:25.445Z,99120.44
2022-08-29T05:35:52.692Z,99117.37
2022-08-29T05:38:20.162Z,99124.69
2022-08-29T05:40:47.427Z,99122.56
2022-08-29T05:43:14.695Z,99128.03
2022-08-29T05:45:42.904Z,99123.53
2022-08-29T05:48:10.219Z,99129.44
2022-08-29T05:50:41.881Z,99137.41
2022-08-29T05:53:10.057Z,99131.31
2022-08-29T05:55:41.042Z,99133.53
2022-08-29T05:58:08.233Z,99139.03
2022-08-29T06:00:37.808Z,99140.31
2022-08-29T06:03:05.698Z,99129.75
2022-08-29T06:05:32.973Z,99131.34
2022-08-29T06:08:00.172Z,99125.72
2022-08-29T06:10:27.782Z,99137.66
2022-08-29T06:12:54.974Z,99133.59
2022-08-29T06:15:22.608Z,99141.47
2022-08-29T06:17:50.060Z,99141.72
2022-08-29T06:20:17.269Z,99143.59
2022-08-29T06:22:44.442Z,99148.34
2022-08-29T06:25:35.526Z,99156.72
2022-08-29T06:27:59.088Z,99167.06
2022-08-29T06:30:26.631Z,99157.28
2022-08-29T06:32:53.903Z,99162.56
2022-08-29T06:35:21.176Z,99164.03
2022-08-29T06:37:48.621Z,99168.31
2022-08-29T06:40:15.856Z,99170.44
2022-08-29T06:42:43.122Z,99175.66
2022-08-29T06:45:11.254Z,99175.03
2022-08-29T06:47:38.442Z,99173.81
2022-08-29T06:50:06.551Z,99180.34
2022-08-29T06:52:33.992Z,99186.84
2022-08-29T06:55:02.968Z,99194.56
2022-08-29T06:57:30.148Z,99198.50
2022-08-29T06:59:57.575Z,99190.53
2022-08-29T07:02:24.780Z,99183.91
2022-08-29T07:04:51.994Z,99194.28
2022-08-29T07:07:19.451Z,99191.44
2022-08-29T07:09:47.301Z,99196.31
2022-08-29T07:12:14.481Z,99196.47
2022-08-29T07:14:41.927Z,99187.91
2022-08-29T07:17:09.099Z,99182.81
2022-08-29T07:19:36.314Z,99180.28
2022-08-29T07:22:07.909Z,99186.28
2022-08-29T07:24:35.121Z,99183.44
2022-08-29T07:27:02.348Z,99180.78
2022-08-29T07:29:30.764Z,99190.22
2022-08-29T07:31:57.956Z,99178.87
2022-08-29T07:34:25.129Z,99185.31
2022-08-29T07:36:52.577Z,99184.16
2022-08-29T07:39:19.901Z,99192.69
2022-08-29T07:41:47.094Z,99194.06
2022-08-29T07:44:14.751Z,99198.72
2022-08-29T07:46:42.693Z,99196.75
2022-08-29T07:49:10.123Z,99192.56
2022-08-29T07:51:37.591Z,99190.75
2022-08-29T07:54:11.181Z,99186.72
2022-08-29T07:56:40.084Z,99191.53
2022-08-29T07:59:07.313Z,99190.44
2022-08-29T08:01:35.712Z,99201.88
2022-08-29T08:04:03.523Z,99200.91
2022-08-29T08:06:30.725Z,99194.31
2022-08-29T08:08:57.929Z,99198.56
2022-08-29T08:11:25.973Z,99195.78
2022-08-29T08:13:53.704Z,99208.00
2022-08-29T08:16:21.599Z,99207.87
2022-08-29T08:18:49.222Z,99205.69
2022-08-29T08:21:16.382Z,99210.28
2022-08-29T08:23:43.618Z,99207.25
2022-08-29T08:26:11.541Z,99202.16
2022-08-29T08:28:39.152Z,99209.94
2022-08-29T08:31:07.462Z,99212.53
2022-08-29T08:33:35.673Z,99207.09
2022-08-29T08:36:03.788Z,99208.56
2022-08-29T08:38:31.569Z,99209.25
2022-08-29T08:41:18.231Z,99210.47
2022-08-29T08:43:58.973Z,99212.19
2022-08-29T08:46:40.379Z,99209.22
2022-08-29T08:49:12.137Z,99204.59
2022-08-29T08:51:40.355Z,99205.94
2022-08-29T08:54:08.498Z,99218.69
2022-08-29T08:56:36.083Z,99217.59
2022-08-29T08:59:16.244Z,99214.13
2022-08-29T09:01:45.294Z,99211.59
2022-08-29T09:04:12.761Z,99212.53
2022-08-29T09:06:42.864Z,99201.75
2022-08-29T09:09:15.814Z,99216.25
2022-08-29T09:11:45.287Z,99207.19
2022-08-29T09:14:12.401Z,99206.81
2022-08-29T09:16:43.915Z,99202.06
2022-08-29T09:19:11.900Z,99207.06
2022-08-29T09:21:45.241Z,99206.50
2022-08-29T09:24:15.978Z,99196.41
2022-08-29T09:26:43.677Z,99196.06
2022-08-29T09:29:11.999Z,99200.75
2022-08-29T09:31:41.194Z,99195.69
2022-08-29T09:34:12.058Z,99201.06
2022-08-29T09:36:48.480Z,99199.13
2022-08-29T09:39:17.566Z,99204.34
2022-08-29T09:41:46.491Z,99198.78
2022-08-29T09:44:14.991Z,99199.31
2022-08-29T09:46:42.895Z,99199.28
2022-08-29T09:49:14.961Z,99208.97
2022-08-29T09:51:43.937Z,99211.44
2022-08-29T09:54:16.302Z,99209.31
2022-08-29T09:56:48.509Z,99206.94
2022-08-29T09:59:51.538Z,99206.00
2022-08-29T10:02:19.748Z,99212.16
2022-08-29T10:05:07.968Z,99214.66
2022-08-29T10:07:47.840Z,99215.25
2022-08-29T10:10:15.237Z,99210.66
2022-08-29T10:12:42.497Z,99209.59
2022-08-29T10:15:33.461Z,99214.00
2022-08-29T10:18:23.883Z,99212.22
2022-08-29T10:21:00.179Z,99212.84
2022-08-29T10:23:43.040Z,99222.38
2022-08-29T10:26:14.322Z,99218.50
2022-08-29T10:28:46.942Z,99216.97
2022-08-29T10:31:27.787Z,99220.88
2022-08-29T10:34:01.682Z,99223.31
2022-08-29T10:36:33.166Z,99216.31
2022-08-29T10:39:12.846Z,99212.31
2022-08-29T10:42:22.012Z,99212.34
2022-08-29T10:44:57.293Z,99209.50
2022-08-29T10:47:26.235Z,99207.38
2022-08-29T10:49:53.697Z,99205.44
2022-08-29T10:52:25.262Z,99203.88
2022-08-29T10:55:07.854Z,99198.88
2022-08-29T10:57:38.014Z,99200.94
2022-08-29T11:00:07.812Z,99203.63
2022-08-29T11:02:54.133Z,99195.44
2022-08-29T11:05:32.968Z,99195.19
2022-08-29T11:08:02.120Z,99194.16
2022-08-29T11:10:30.758Z,99197.34
2022-08-29T11:13:11.981Z,99195.84
2022-08-29T11:15:42.459Z,99197.62
2022-08-29T11:18:22.315Z,99193.78
2022-08-29T11:20:50.726Z,99192.66
2022-08-29T11:23:27.044Z,99191.88
2022-08-29T11:25:55.278Z,99183.03
2022-08-29T11:28:50.814Z,99186.28
2022-08-29T11:31:25.889Z,99181.50
2022-08-29T11:33:59.363Z,99181.06
2022-08-29T11:36:45.965Z,99186.84
2022-08-29T11:39:29.905Z,99178.56
2022-08-29T11:41:58.637Z,99180.63
2022-08-29T11:44:33.342Z,99168.84
2022-08-29T11:47:01.021Z,99174.00
2022-08-29T11:49:32.086Z,99173.47
2022-08-29T11:52:08.235Z,99177.28
2022-08-29T11:54:35.668Z,99179.47
2022-08-29T11:57:04.043Z,99174.03
2022-08-29T11:59:50.773Z,99175.19
2022-08-29T12:02:33.229Z,99175.47
2022-08-29T12:05:06.454Z,99170.84
2022-08-29T12:07:36.438Z,99165.03
2022-08-29T12:10:06.555Z,99153.69
2022-08-29T12:12:38.390Z,99156.91
2022-08-29T12:15:25.196Z,99164.25
2022-08-29T12:18:01.834Z,99164.84
2022-08-29T12:20:30.134Z,99155.59
2022-08-29T12:23:05.550Z,99161.38
2022-08-29T12:25:44.715Z,99149.69
2022-08-29T12:28:17.894Z,99157.00
2022-08-29T12:30:47.231Z,99142.94
2022-08-29T12:33:23.137Z,99147.44
2022-08-29T12:36:09.756Z,99140.28
2022-08-29T12:39:03.125Z,99153.19
2022-08-29T12:41:47.115Z,99147.91
2022-08-29T12:44:16.700Z,99136.25
2022-08-29T12:46:45.324Z,99139.37
2022-08-29T12:49:23.467Z,99135.62
2022-08-29T12:51:58.409Z,99135.34
2022-08-29T12:54:33.104Z,99124.63
2022-08-29T12:57:00.559Z,99126.28
2022-08-29T12:59:29.089Z,99125.44
2022-08-29T13:01:57.233Z,99119.63
2022-08-29T13:04:26.270Z,99121.72
2022-08-29T13:07:03.478Z,99110.38
2022-08-29T13:09:32.726Z,99110.84
2022-08-29T13:12:06.514Z,99114.75
2022-08-29T13:14:36.097Z,99115.38
2022-08-29T13:17:10.624Z,99113.78
2022-08-29T13:19:38.090Z,99105.22
2022-08-29T13:22:05.259Z,99104.03
2022-08-29T13:24:32.442Z,99106.34
2022-08-29T13:27:04.214Z,99103.06
2022-08-29T13:29:38.229Z,99097.69
2022-08-29T13:32:26.512Z,99100.63
2022-08-29T13:34:59.765Z,99096.72
2022-08-29T13:37:28.958Z,99097.56
2022-08-29T13:39:56.198Z,99087.34
2022-08-29T13:42:25.442Z,99085.06
2022-08-29T13:45:00.334Z,99088.19
2022-08-29T13:47:28.988Z,99096.22
2022-08-29T13:49:58.213Z,99087.66
2022-08-29T13:52:31.445Z,99094.44
2022-08-29T13:54:59.654Z,99087.44
2022-08-29T13:57:32.289Z,99089.62
2022-08-29T13:59:59.967Z,99095.63
2022-08-29T14:02:27.859Z,99088.13
2022-08-29T14:04:55.593Z,99083.66
2022-08-29T14:07:25.020Z,99087.25
2022-08-29T14:09:52.474Z,99083.75
2022-08-29T14:12:21.428Z,99092.00
2022-08-29T14:14:57.597Z,99093.34
2022-08-29T14:17:25.163Z,99085.91
2022-08-29T14:19:52.521Z,99083.78
2022-08-29T14:22:20.335Z,99087.41
2022-08-29T14:24:53.085Z,99084.72
2022-08-29T14:27:21.255Z,99078.37
2022-08-29T14:29:48.971Z,99084.28
2022-08-29T14:32:16.229Z,99085.41
2022-08-29T14:34:44.786Z,99081.13
2022-08-29T14:37:20.096Z,99090.91
2022-08-29T14:39:49.763Z,99086.53
2022-08-29T14:42:18.187Z,99081.59
2022-08-29T14:44:45.669Z,99081.69
2022-08-29T14:47:13.147Z,99078.78
2022-08-29T14:49:40.653Z,99085.19
2022-08-29T14:52:08.111Z,99076.59
2022-08-29T14:54:37.814Z,99077.69
2022-08-29T14:57:05.149Z,99076.38
2022-08-29T14:59:32.606Z,99082.97
2022-08-29T15:02:00.234Z,99080.22
2022-08-29T15:04:35.603Z,99079.25
2022-08-29T15:07:13.537Z,99073.53
2022-08-29T15:09:42.099Z,99073.00
2022-08-29T15:12:13.233Z,99082.19
2022-08-29T15:14:41.455Z,99077.69
2022-08-29T15:17:08.769Z,99080.38
2022-08-29T15:20:18.117Z,99077.03
2022-08-29T15:22:24.330Z,99084.66
2022-08-29T15:24:51.938Z,99080.56
2022-08-29T15:27:23.648Z,99075.16
2022-08-29T15:29:54.015Z,99083.16
2022-08-29T15:32:21.463Z,99075.38
2022-08-29T15:34:48.743Z,99077.69
2022-08-29T15:37:16.211Z,99079.03
2022-08-29T15:39:43.436Z,99071.81
2022-08-29T15:42:11.450Z,99066.75
2022-08-29T15:44:39.691Z,99068.34
2022-08-29T15:47:06.896Z,99080.19
2022-08-29T15:49:38.526Z,99076.84
2022-08-29T15:52:06.025Z,99082.22
2022-08-29T15:54:34.307Z,99078.66
2022-08-29T15:57:01.553Z,99075.72
2022-08-29T15:59:54.170Z,99080.50
2022-08-29T16:02:19.089Z,99074.75
2022-08-29T16:04:47.868Z,99076.47
2022-08-29T16:07:15.784Z,99074.00
2022-08-29T16:09:43.191Z,99073.78
2022-08-29T16:12:11.377Z,99074.53
2022-08-29T16:14:58.479Z,99073.69
2022-08-29T16:17:26.363Z,99077.44
2022-08-29T16:19:54.855Z,99079.75
2022-08-29T16:22:22.034Z,99073.72
2022-08-29T16:24:49.544Z,99067.47
2022-08-29T16:27:17.299Z,99067.88
2022-08-29T16:29:44.490Z,99069.59
2022-08-29T16:32:11.941Z,99067.12
2022-08-29T16:34:39.117Z,99061.31
2022-08-29T16:37:06.614Z,99064.53
2022-08-29T16:39:34.055Z,99075.66
2022-08-29T16:42:01.225Z,99075.38
2022-08-29T16:44:28.393Z,99076.31
2022-08-29T16:46:55.835Z,99084.88
2022-08-29T16:49:23.009Z,99085.00
2022-08-29T16:51:50.264Z,99085.81
2022-08-29T16:54:18.102Z,99092.22
2022-08-29T16:56:45.335Z,99092.06
2022-08-29T16:59:12.655Z,99101.47
2022-08-29T17:01:44.684Z,99098.62
2022-08-29T17:04:13.340Z,99105.34
2022-08-29T17:06:41.920Z,99109.63
2022-08-29T17:09:09.246Z,99113.84
2022-08-29T17:11:36.957Z,99112.22
2022-08-29T17:14:04.773Z,99123.69
2022-08-29T17:16:32.051Z,99122.47
2022-08-29T17:18:59.946Z,99126.09
2022-08-29T17:21:27.410Z,99126.47
2022-08-29T17:23:55.445Z,99128.69
2022-08-29T17:26:23.207Z,99127.91
2022-08-29T17:28:50.932Z,99134.78
2022-08-29T17:31:18.219Z,99133.19
2022-08-29T17:33:46.418Z,99131.00
2022-08-29T17:36:14.164Z,99131.38
2022-08-29T17:38:42.415Z,99135.84
2022-08-29T17:41:14.704Z,99136.12
2022-08-29T17:43:42.920Z,99143.25
2022-08-29T17:46:10.208Z,99146.13
2022-08-29T17:48:37.423Z,99144.66
2022-08-29T17:51:05.005Z,99150.56
2022-08-29T17:53:35.233Z,99149.78
2022-08-29T17:56:15.727Z,99152.12
2022-08-29T17:58:43.162Z,99157.69
2022-08-29T18:01:15.743Z,99169.69
2022-08-29T18:03:46.171Z,99172.34
2022-08-29T18:06:14.640Z,99173.72
2022-08-29T18:08:44.099Z,99179.44
2022-08-29T18:11:16.142Z,99180.66
2022-08-29T18:13:43.449Z,99191.31
2022-08-29T18:16:11.629Z,99186.37
2022-08-29T18:18:39.497Z,99188.13
2022-08-29T18:21:06.751Z,99187.25
2022-08-29T18:23:34.138Z,99193.37
2022-08-29T18:26:02.137Z,99187.16
2022-08-29T18:28:29.526Z,99198.75
2022-08-29T18:30:56.747Z,99189.84
2022-08-29T18:33:28.522Z,99194.88
2022-08-29T18:36:02.174Z,99200.94
2022-08-29T18:38:30.045Z,99208.44
2022-08-29T18:40:57.268Z,99206.59
2022-08-29T18:43:24.455Z,99208.06
2022-08-29T18:45:51.929Z,99212.44
2022-08-29T18:48:19.379Z,99216.28
2022-08-29T18:50:46.770Z,99213.38
2022-08-29T18:53:15.691Z,99211.44
2022-08-29T18:55:50.367Z,99212.28
2022-08-29T18:58:23.061Z,99208.81
2022-08-29T19:00:50.513Z,99212.03
2022-08-29T19:03:17.856Z,99211.62
2022-08-29T19:05:49.380Z,99219.59
2022-08-29T19:08:17.485Z,99213.75
2022-08-29T19:10:48.020Z,99216.75
2022-08-29T19:13:15.566Z,99219.59
2022-08-29T19:15:45.279Z,99221.50
2022-08-29T19:18:13.193Z,99216.66
2022-08-29T19:20:59.300Z,99228.06
2022-08-29T19:23:26.954Z,99233.94
2022-08-29T19:25:54.297Z,99229.34
2022-08-29T19:28:21.556Z,99220.50
2022-08-29T19:30:49.405Z,99227.12
2022-08-29T19:33:18.480Z,99231.06
2022-08-29T19:35:48.163Z,99237.84
2022-08-29T19:38:16.522Z,99233.56
2022-08-29T19:40:44.529Z,99240.41
2022-08-29T19:43:13.954Z,99245.16
2022-08-29T19:45:42.338Z,99251.91
2022-08-29T19:48:10.702Z,99239.75
2022-08-29T19:50:43.060Z,99238.13
2022-08-29T19:53:21.492Z,99240.31
2022-08-29T19:55:54.632Z,99240.09
2022-08-29T19:58:23.646Z,99239.91
2022-08-29T20:01:00.165Z,99243.72
2022-08-29T20:03:27.772Z,99247.47
2022-08-29T20:05:55.574Z,99248.28
2022-08-29T20:08:23.033Z,99243.16
2022-08-29T20:10:51.314Z,99245.53
2022-08-29T20:13:19.448Z,99242.53
2022-08-29T20:15:47.233Z,99253.06
2022-08-29T20:18:15.253Z,99243.06
2022-08-29T20:20:45.426Z,99249.13
2022-08-29T20:23:13.201Z,99252.88
2022-08-29T20:25:40.666Z,99250.53
2022-08-29T20:28:07.850Z,99251.16
2022-08-29T20:30:42.950Z,99249.59
2022-08-29T20:33:11.622Z,99260.31
2022-08-29T20:35:57.908Z,99254.72
2022-08-29T20:38:27.553Z,99257.16
2022-08-29T20:40:54.827Z,99251.22
2022-08-29T20:43:22.089Z,99259.13
2022-08-29T20:45:49.882Z,99260.81
2022-08-29T20:48:17.174Z,99258.88
2022-08-29T20:50:44.479Z,99268.63
2022-08-29T20:53:14.728Z,99257.31
2022-08-29T20:55:59.101Z,99255.91
2022-08-29T20:58:26.716Z,99254.72
2022-08-29T21:00:59.876Z,99257.78
2022-08-29T21:03:46.263Z,99255.22
2022-08-29T21:06:14.104Z,99259.94
2022-08-29T21:08:42.282Z,99259.00
2022-08-29T21:11:10.261Z,99252.03
2022-08-29T21:13:43.361Z,99253.22
2022-08-29T21:16:11.100Z,99253.53
2022-08-29T21:18:38.557Z,99247.22
2022-08-29T21:21:06.091Z,99245.41
2022-08-29T21:23:34.267Z,99249.56
2022-08-29T21:26:01.912Z,99243.72
2022-08-29T21:28:31.624Z,99238.09
2022-08-29T21:31:08.677Z,99246.25
2022-08-29T21:33:40.299Z,99256.00
2022-08-29T21:36:11.518Z,99255.13
2022-08-29T21:38:39.737Z,99254.25
2022-08-29T21:41:10.466Z,99257.53
2022-08-29T21:43:38.361Z,99247.97
2022-08-29T21:46:15.875Z,99243.97
2022-08-29T21:48:43.314Z,99243.59
2022-08-29T21:51:10.915Z,99243.59
2022-08-29T21:53:41.534Z,99247.72
2022-08-29T21:56:09.105Z,99255.97
2022-08-29T21:58:36.551Z,99262.88
2022-08-29T22:01:14.487Z,99255.31
2022-08-29T22:03:42.005Z,99261.03
2022-08-29T22:06:11.324Z,99253.69
2022-08-29T22:08:38.575Z,99258.62
2022-08-29T22:11:09.889Z,99263.09
2022-08-29T22:13:37.406Z,99254.75
2022-08-29T22:16:23.524Z,99256.03
2022-08-29T22:18:51.018Z,99256.75
2022-08-29T22:21:18.200Z,99270.03
2022-08-29T22:23:45.372Z,99260.72
2022-08-29T22:26:13.419Z,99259.66
2022-08-29T22:28:42.827Z,99262.06
2022-08-29T22:31:10.084Z,99258.22
2022-08-29T22:33:37.769Z,99265.84
2022-08-29T22:36:05.429Z,99271.22
2022-08-29T22:38:33.179Z,99277.78
2022-08-29T22:41:00.619Z,99284.56
2022-08-29T22:43:28.512Z,99280.09
2022-08-29T22:45:55.679Z,99283.34
2022-08-29T22:48:25.381Z,99280.78
2022-08-29T22:50:54.093Z,99281.25
2022-08-29T22:53:25.815Z,99280.56
2022-08-29T22:55:52.976Z,99285.50
2022-08-29T22:58:20.158Z,99285.47
2022-08-29T23:00:47.600Z,99284.59
2022-08-29T23:03:15.083Z,99281.62
2022-08-29T23:05:42.320Z,99290.22
2022-08-29T23:08:09.776Z,99290.69
2022-08-29T23:10:36.930Z,99293.34
2022-08-29T23:13:04.102Z,99298.81
2022-08-29T23:15:31.629Z,99293.91
2022-08-29T23:18:00.200Z,99299.87
2022-08-29T23:20:29.659Z,99297.88
2022-08-29T23:22:57.141Z,99300.22
2022-08-29T23:25:24.600Z,99299.00
2022-08-29T23:27:52.091Z,99299.37
2022-08-29T23:30:19.537Z,99300.72
2022-08-29T23:32:46.693Z,99298.25
2022-08-29T23:35:13.865Z,99304.50
2022-08-29T23:37:41.298Z,99316.09
2022-08-29T23:40:09.566Z,99306.91
2022-08-29T23:42:37.105Z,99315.78
2022-08-29T23:45:05.026Z,99306.94
2022-08-29T23:47:32.207Z,99317.41
2022-08-29T23:49:59.462Z,99308.37
2022-08-29T23:52:26.884Z,99309.31
2022-08-29T23:54:54.132Z,99305.38
2022-08-29T23:57:21.306Z,99314.47
